createdAt,value
2017-10-20T00:01:18.285Z,14.55
2017-10-20T00:03:45.886Z,14.56
2017-10-20T00:06:13.531Z,14.58
2017-10-20T00:08:41.144Z,14.58
2017-10-20T00:11:09.097Z,14.42
2017-10-20T00:13:36.676Z,14.30
2017-10-20T00:16:04.323Z,14.19
2017-10-20T00:18:31.892Z,14.20
2017-10-20T00:20:59.465Z,14.27
2017-10-20T00:23:27.120Z,14.20
2017-10-20T00:25:54.704Z,14.16
2017-10-20T00:28:22.523Z,14.16
2017-10-20T00:30:50.132Z,14.13
2017-10-20T00:33:17.696Z,14.24
2017-10-20T00:35:45.252Z,14.10
2017-10-20T00:38:12.896Z,14.08
2017-10-20T00:40:40.613Z,14.07
2017-10-20T00:43:08.184Z,13.86
2017-10-20T00:45:35.860Z,13.83
2017-10-20T00:48:03.449Z,13.86
2017-10-20T00:50:31.069Z,13.76
2017-10-20T00:52:58.688Z,13.78
2017-10-20T00:55:27.029Z,13.94
2017-10-20T00:57:54.668Z,14.02
2017-10-20T01:00:22.396Z,13.68
2017-10-20T01:02:50.032Z,13.86
2017-10-20T01:05:17.594Z,13.92
2017-10-20T01:07:45.245Z,13.76
2017-10-20T01:10:12.823Z,13.92
2017-10-20T01:12:40.405Z,13.74
2017-10-20T01:15:08.141Z,13.83
2017-10-20T01:17:35.762Z,13.57
2017-10-20T01:20:03.383Z,13.53
2017-10-20T01:22:31.957Z,13.30
2017-10-20T01:24:59.601Z,13.56
2017-10-20T01:27:27.210Z,13.36
2017-10-20T01:29:54.966Z,13.42
2017-10-20T01:32:22.610Z,13.41
2017-10-20T01:34:50.228Z,13.40
2017-10-20T01:37:17.845Z,13.44
2017-10-20T01:39:45.461Z,13.60
2017-10-20T01:42:13.152Z,13.42
2017-10-20T01:44:40.769Z,13.37
2017-10-20T01:47:08.477Z,13.29
2017-10-20T01:49:36.137Z,13.23
2017-10-20T01:52:03.761Z,13.44
2017-10-20T01:54:31.389Z,13.27
2017-10-20T01:56:59.080Z,13.16
2017-10-20T01:59:26.913Z,13.20
2017-10-20T02:01:54.597Z,13.20
2017-10-20T02:04:22.224Z,13.04
2017-10-20T02:06:49.814Z,13.06
2017-10-20T02:09:17.473Z,12.69
2017-10-20T02:11:45.085Z,12.81
2017-10-20T02:14:12.732Z,12.70
2017-10-20T02:16:40.430Z,12.68
2017-10-20T02:19:08.057Z,12.76
2017-10-20T02:21:35.638Z,12.66
2017-10-20T02:24:03.253Z,12.70
2017-10-20T02:26:30.872Z,12.65
2017-10-20T02:28:58.504Z,12.56
2017-10-20T02:31:26.176Z,12.68
2017-10-20T02:33:53.834Z,12.78
2017-10-20T02:36:21.460Z,12.62
2017-10-20T02:38:49.192Z,12.58
2017-10-20T02:41:17.040Z,12.55
2017-10-20T02:43:44.922Z,12.49
2017-10-20T02:46:12.637Z,12.54
2017-10-20T02:48:40.985Z,12.48
2017-10-20T02:51:08.616Z,12.55
2017-10-20T02:53:36.897Z,12.51
2017-10-20T02:56:04.915Z,12.53
2017-10-20T02:58:32.751Z,12.40
2017-10-20T03:01:00.762Z,12.40
2017-10-20T03:03:28.924Z,12.45
2017-10-20T03:05:56.898Z,12.46
2017-10-20T03:08:24.556Z,12.51
2017-10-20T03:10:56.444Z,12.44
2017-10-20T03:13:26.154Z,12.45
2017-10-20T03:16:00.306Z,12.42
2017-10-20T03:18:36.441Z,12.24
2017-10-20T03:21:12.243Z,12.42
2017-10-20T03:23:42.171Z,12.48
2017-10-20T03:26:11.406Z,12.41
2017-10-20T03:28:45.012Z,12.58
2017-10-20T03:31:15.728Z,12.51
2017-10-20T03:33:47.718Z,12.39
2017-10-20T03:36:21.350Z,12.33
2017-10-20T03:38:51.773Z,12.33
2017-10-20T03:41:21.843Z,12.28
2017-10-20T03:43:59.018Z,12.34
2017-10-20T03:46:29.967Z,12.22
2017-10-20T03:49:01.179Z,12.14
2017-10-20T03:51:31.709Z,12.14
2017-10-20T03:54:07.273Z,12.24
2017-10-20T03:56:36.724Z,12.26
2017-10-20T03:59:07.086Z,12.19
2017-10-20T04:01:34.950Z,12.25
2017-10-20T04:04:03.639Z,12.15
2017-10-20T04:06:31.355Z,12.11
2017-10-20T04:08:58.977Z,12.05
2017-10-20T04:11:26.660Z,12.11
2017-10-20T04:13:54.276Z,12.20
2017-10-20T04:16:21.974Z,12.27
2017-10-20T04:18:49.795Z,12.22
2017-10-20T04:21:17.391Z,13.50
2017-10-20T04:23:45.025Z,15.25
2017-10-20T04:26:12.852Z,15.15
2017-10-20T04:28:40.437Z,14.83
2017-10-20T04:31:09.217Z,13.64
2017-10-20T04:33:36.898Z,13.03
2017-10-20T04:36:04.470Z,13.01
2017-10-20T04:38:32.152Z,12.81
2017-10-20T04:40:59.808Z,12.76
2017-10-20T04:43:27.371Z,12.53
2017-10-20T04:45:55.012Z,12.54
2017-10-20T04:48:22.827Z,12.43
2017-10-20T04:50:50.439Z,12.27
2017-10-20T04:53:18.032Z,12.32
2017-10-20T04:55:45.636Z,12.53
2017-10-20T04:58:13.289Z,12.67
2017-10-20T05:00:41.077Z,12.56
2017-10-20T05:03:08.678Z,13.02
2017-10-20T05:05:36.619Z,13.18
2017-10-20T05:08:04.349Z,13.71
2017-10-20T05:10:31.940Z,14.08
2017-10-20T05:12:59.509Z,14.40
2017-10-20T05:15:27.173Z,14.68
2017-10-20T05:17:54.754Z,14.97
2017-10-20T05:20:22.324Z,15.41
2017-10-20T05:22:49.922Z,15.60
2017-10-20T05:25:17.513Z,16.18
2017-10-20T05:27:45.120Z,16.31
2017-10-20T05:30:12.758Z,16.86
2017-10-20T05:32:40.323Z,17.16
2017-10-20T05:35:07.896Z,17.29
2017-10-20T05:37:35.491Z,17.72
2017-10-20T05:40:03.106Z,18.23
2017-10-20T05:42:30.656Z,18.50
2017-10-20T05:44:58.280Z,18.70
2017-10-20T05:47:25.853Z,18.99
2017-10-20T05:49:53.476Z,19.53
2017-10-20T05:52:21.124Z,19.45
2017-10-20T05:54:48.731Z,19.94
2017-10-20T05:57:16.308Z,19.71
2017-10-20T05:59:43.993Z,19.78
2017-10-20T06:02:11.615Z,20.35
2017-10-20T06:04:39.181Z,20.27
2017-10-20T06:07:06.745Z,20.18
2017-10-20T06:09:34.363Z,20.87
2017-10-20T06:12:02.014Z,20.68
2017-10-20T06:14:29.580Z,20.83
2017-10-20T06:16:57.188Z,20.86
2017-10-20T06:19:24.753Z,20.80
2017-10-20T06:21:52.556Z,21.39
2017-10-20T06:24:20.285Z,21.43
2017-10-20T06:26:47.857Z,21.76
2017-10-20T06:29:15.471Z,21.82
2017-10-20T06:31:43.192Z,22.31
2017-10-20T06:34:11.125Z,22.35
2017-10-20T06:36:38.743Z,22.56
2017-10-20T06:39:06.380Z,22.81
2017-10-20T06:41:33.989Z,22.70
2017-10-20T06:44:01.575Z,23.20
2017-10-20T06:46:29.198Z,23.55
2017-10-20T06:48:56.997Z,23.28
2017-10-20T06:51:24.577Z,22.74
2017-10-20T06:53:52.225Z,23.16
2017-10-20T06:56:20.131Z,23.17
2017-10-20T06:58:47.688Z,23.30
2017-10-20T07:01:15.322Z,23.87
2017-10-20T07:03:42.890Z,24.14
2017-10-20T07:06:10.476Z,24.33
2017-10-20T07:08:38.100Z,24.40
2017-10-20T07:11:05.668Z,24.78
2017-10-20T07:13:33.305Z,24.52
2017-10-20T07:16:00.982Z,24.61
2017-10-20T07:18:31.861Z,25.13
2017-10-20T07:20:59.729Z,25.17
2017-10-20T07:23:28.170Z,25.57
2017-10-20T07:25:55.754Z,25.80
2017-10-20T07:28:23.322Z,25.80
2017-10-20T07:30:50.975Z,25.33
2017-10-20T07:33:18.628Z,25.30
2017-10-20T07:35:46.201Z,25.85
2017-10-20T07:38:13.805Z,25.93
2017-10-20T07:40:41.393Z,26.09
2017-10-20T07:43:08.974Z,26.04
2017-10-20T07:45:36.587Z,26.40
2017-10-20T07:48:04.238Z,26.46
2017-10-20T07:50:31.815Z,26.02
2017-10-20T07:53:00.280Z,25.99
2017-10-20T07:55:27.858Z,26.11
2017-10-20T07:57:55.459Z,26.05
2017-10-20T08:00:23.184Z,26.35
2017-10-20T08:02:50.794Z,26.74
2017-10-20T08:05:18.375Z,27.77
2017-10-20T08:07:46.002Z,27.32
2017-10-20T08:10:13.608Z,27.39
2017-10-20T08:12:41.238Z,27.54
2017-10-20T08:15:08.858Z,26.79
2017-10-20T08:17:36.467Z,26.49
2017-10-20T08:20:04.386Z,26.32
2017-10-20T08:22:31.985Z,26.40
2017-10-20T08:24:59.598Z,26.65
2017-10-20T08:27:27.460Z,27.68
2017-10-20T08:29:55.095Z,27.94
2017-10-20T08:32:22.722Z,27.70
2017-10-20T08:34:50.316Z,27.78
2017-10-20T08:37:17.947Z,27.98
2017-10-20T08:39:45.705Z,28.15
2017-10-20T08:42:13.307Z,27.71
2017-10-20T08:44:40.993Z,28.36
2017-10-20T08:47:08.621Z,28.84
2017-10-20T08:49:36.262Z,28.65
2017-10-20T08:52:03.860Z,29.28
2017-10-20T08:54:31.496Z,28.83
2017-10-20T08:56:59.058Z,29.29
2017-10-20T08:59:26.846Z,28.75
2017-10-20T09:01:54.437Z,28.24
2017-10-20T09:04:21.991Z,28.19
2017-10-20T09:06:49.551Z,28.06
2017-10-20T09:09:17.134Z,28.20
2017-10-20T09:11:45.087Z,28.55
2017-10-20T09:14:12.341Z,28.55
2017-10-20T09:16:39.925Z,29.29
2017-10-20T09:19:07.499Z,29.13
2017-10-20T09:21:35.053Z,29.31
2017-10-20T09:24:02.721Z,29.36
2017-10-20T09:26:30.305Z,28.99
2017-10-20T09:28:57.854Z,29.06
2017-10-20T09:31:25.456Z,29.19
2017-10-20T09:33:53.053Z,29.44
2017-10-20T09:36:20.691Z,29.11
2017-10-20T09:38:48.334Z,29.31
2017-10-20T09:41:15.929Z,29.45
2017-10-20T09:43:43.483Z,28.76
2017-10-20T09:46:11.092Z,29.13
2017-10-20T09:48:38.710Z,29.21
2017-10-20T09:51:06.543Z,29.66
2017-10-20T09:53:34.164Z,29.76
2017-10-20T09:56:02.518Z,29.24
2017-10-20T09:58:30.081Z,29.87
2017-10-20T10:00:57.803Z,30.31
2017-10-20T10:03:25.374Z,30.42
2017-10-20T10:05:52.993Z,30.17
2017-10-20T10:08:20.662Z,28.94
2017-10-20T10:10:48.246Z,28.92
2017-10-20T10:13:16.797Z,29.18
2017-10-20T10:15:44.409Z,28.39
2017-10-20T10:18:11.968Z,28.97
2017-10-20T10:20:40.554Z,29.27
2017-10-20T10:23:08.172Z,29.50
2017-10-20T10:25:35.764Z,29.60
2017-10-20T10:28:03.404Z,29.74
2017-10-20T10:30:31.142Z,29.90
2017-10-20T10:32:58.701Z,29.90
2017-10-20T10:35:26.299Z,30.17
2017-10-20T10:37:53.954Z,29.79
2017-10-20T10:40:21.531Z,29.66
2017-10-20T10:42:49.081Z,29.56
2017-10-20T10:45:16.710Z,29.60
2017-10-20T10:47:44.639Z,29.69
2017-10-20T10:50:12.181Z,29.62
2017-10-20T10:52:39.786Z,29.80
2017-10-20T10:55:07.328Z,29.59
2017-10-20T10:57:34.933Z,29.00
2017-10-20T11:00:04.612Z,28.60
2017-10-20T11:02:32.426Z,28.92
2017-10-20T11:05:05.933Z,28.89
2017-10-20T11:07:45.401Z,29.10
2017-10-20T11:10:24.850Z,29.19
2017-10-20T11:13:01.173Z,29.06
2017-10-20T11:15:28.766Z,28.60
2017-10-20T11:17:56.385Z,28.76
2017-10-20T11:20:23.942Z,28.84
2017-10-20T11:22:51.588Z,28.71
2017-10-20T11:25:19.182Z,28.56
2017-10-20T11:27:46.916Z,28.80
2017-10-20T11:30:14.615Z,29.07
2017-10-20T11:32:42.216Z,28.64
2017-10-20T11:35:09.813Z,28.42
2017-10-20T11:37:37.454Z,28.53
2017-10-20T11:40:05.021Z,28.87
2017-10-20T11:42:32.693Z,29.26
2017-10-20T11:45:00.396Z,29.25
2017-10-20T11:47:27.969Z,29.42
2017-10-20T11:49:55.514Z,29.46
2017-10-20T11:52:23.098Z,29.63
2017-10-20T11:54:50.883Z,29.83
2017-10-20T11:57:18.494Z,29.75
2017-10-20T11:59:46.172Z,29.83
2017-10-20T12:02:13.757Z,29.85
2017-10-20T12:04:41.668Z,30.09
2017-10-20T12:07:09.258Z,29.98
2017-10-20T12:09:36.905Z,29.65
2017-10-20T12:12:05.247Z,29.72
2017-10-20T12:14:32.864Z,29.57
2017-10-20T12:17:00.473Z,29.50
2017-10-20T12:19:28.076Z,29.63
2017-10-20T12:21:55.921Z,29.62
2017-10-20T12:24:23.554Z,29.26
2017-10-20T12:26:51.178Z,28.96
2017-10-20T12:29:18.717Z,29.06
2017-10-20T12:31:46.303Z,29.15
2017-10-20T12:34:13.841Z,29.38
2017-10-20T12:36:41.376Z,29.31
2017-10-20T12:39:09.001Z,29.30
2017-10-20T12:41:36.580Z,28.95
2017-10-20T12:44:04.114Z,28.94
2017-10-20T12:46:31.746Z,28.82
2017-10-20T12:48:59.308Z,28.70
2017-10-20T12:51:26.916Z,28.79
2017-10-20T12:53:54.500Z,29.01
2017-10-20T12:56:22.045Z,29.14
2017-10-20T12:58:49.580Z,28.91
2017-10-20T13:01:17.468Z,28.76
2017-10-20T13:03:45.361Z,28.79
2017-10-20T13:06:13.125Z,28.77
2017-10-20T13:08:41.456Z,28.48
2017-10-20T13:11:09.295Z,28.48
2017-10-20T13:13:36.864Z,28.61
2017-10-20T13:16:04.474Z,28.55
2017-10-20T13:18:32.057Z,28.68
2017-10-20T13:20:59.913Z,28.67
2017-10-20T13:23:27.532Z,28.46
2017-10-20T13:25:55.148Z,28.39
2017-10-20T13:28:22.843Z,28.33
2017-10-20T13:30:50.460Z,28.17
2017-10-20T13:33:18.094Z,28.10
2017-10-20T13:35:46.575Z,27.82
2017-10-20T13:38:14.245Z,27.62
2017-10-20T13:40:41.958Z,27.63
2017-10-20T13:43:09.583Z,27.51
2017-10-20T13:45:37.185Z,27.43
2017-10-20T13:48:04.798Z,27.30
2017-10-20T13:50:32.396Z,27.21
2017-10-20T13:53:00.021Z,26.94
2017-10-20T13:55:27.578Z,26.85
2017-10-20T13:57:55.445Z,26.71
2017-10-20T14:00:23.084Z,26.76
2017-10-20T14:02:50.752Z,26.70
2017-10-20T14:05:18.338Z,26.65
2017-10-20T14:07:45.995Z,26.53
2017-10-20T14:10:13.837Z,26.38
2017-10-20T14:12:41.434Z,26.24
2017-10-20T14:15:09.067Z,26.18
2017-10-20T14:17:36.633Z,26.09
2017-10-20T14:20:04.337Z,26.03
2017-10-20T14:22:31.994Z,26.01
2017-10-20T14:24:59.549Z,25.86
2017-10-20T14:27:27.087Z,25.84
2017-10-20T14:29:54.693Z,25.81
2017-10-20T14:32:22.306Z,25.77
2017-10-20T14:34:49.856Z,25.70
2017-10-20T14:37:17.745Z,25.67
2017-10-20T14:39:45.363Z,25.62
2017-10-20T14:42:12.946Z,25.47
2017-10-20T14:44:40.596Z,25.41
2017-10-20T14:47:08.258Z,25.28
2017-10-20T14:49:35.869Z,25.24
2017-10-20T14:52:03.636Z,25.21
2017-10-20T14:54:31.374Z,25.13
2017-10-20T14:56:59.006Z,24.93
2017-10-20T14:59:26.804Z,24.56
2017-10-20T15:01:54.474Z,24.35
2017-10-20T15:04:22.038Z,24.25
2017-10-20T15:06:49.733Z,24.17
2017-10-20T15:09:17.391Z,24.14
2017-10-20T15:11:44.971Z,23.98
2017-10-20T15:14:12.521Z,23.85
2017-10-20T15:16:40.112Z,23.64
2017-10-20T15:19:07.666Z,23.60
2017-10-20T15:21:35.448Z,23.44
2017-10-20T15:24:03.045Z,23.41
2017-10-20T15:26:30.745Z,23.27
2017-10-20T15:28:58.354Z,23.16
2017-10-20T15:31:26.007Z,22.92
2017-10-20T15:33:53.583Z,22.81
2017-10-20T15:36:21.467Z,22.75
2017-10-20T15:38:49.163Z,22.61
2017-10-20T15:41:16.775Z,22.40
2017-10-20T15:43:44.341Z,22.42
2017-10-20T15:46:12.061Z,22.62
2017-10-20T15:48:39.877Z,22.72
2017-10-20T15:51:07.513Z,22.55
2017-10-20T15:53:35.121Z,22.47
2017-10-20T15:56:03.907Z,22.38
2017-10-20T15:58:31.478Z,22.17
2017-10-20T16:00:59.080Z,22.06
2017-10-20T16:03:26.920Z,21.80
2017-10-20T16:05:54.594Z,21.84
2017-10-20T16:08:22.240Z,21.62
2017-10-20T16:10:49.808Z,21.55
2017-10-20T16:13:17.852Z,21.61
2017-10-20T16:15:45.460Z,21.65
2017-10-20T16:18:13.114Z,21.48
2017-10-20T16:20:40.797Z,21.47
2017-10-20T16:23:08.468Z,21.33
2017-10-20T16:25:36.072Z,21.28
2017-10-20T16:28:03.667Z,21.28
2017-10-20T16:30:31.318Z,20.96
2017-10-20T16:32:58.969Z,20.80
2017-10-20T16:35:26.600Z,20.86
2017-10-20T16:37:54.201Z,20.76
2017-10-20T16:40:21.821Z,20.81
2017-10-20T16:42:49.387Z,20.73
2017-10-20T16:45:17.056Z,20.67
2017-10-20T16:47:44.705Z,20.69
2017-10-20T16:50:12.295Z,20.67
2017-10-20T16:52:40.005Z,20.64
2017-10-20T16:55:07.608Z,20.68
2017-10-20T16:57:35.305Z,20.41
2017-10-20T17:00:04.490Z,20.27
2017-10-20T17:02:32.124Z,20.36
2017-10-20T17:04:59.743Z,20.32
2017-10-20T17:07:27.384Z,20.10
2017-10-20T17:09:55.006Z,20.07
2017-10-20T17:12:22.599Z,19.96
2017-10-20T17:14:51.215Z,19.96
2017-10-20T17:17:18.842Z,19.92
2017-10-20T17:19:46.469Z,19.87
2017-10-20T17:22:14.117Z,19.75
2017-10-20T17:24:41.800Z,19.67
2017-10-20T17:27:09.418Z,19.31
2017-10-20T17:29:37.058Z,19.32
2017-10-20T17:32:04.701Z,19.18
2017-10-20T17:34:32.306Z,19.13
2017-10-20T17:36:59.989Z,19.12
2017-10-20T17:39:27.624Z,19.12
2017-10-20T17:41:55.235Z,19.12
2017-10-20T17:44:23.648Z,19.09
2017-10-20T17:46:51.321Z,19.10
2017-10-20T17:49:19.624Z,19.06
2017-10-20T17:51:47.272Z,18.99
2017-10-20T17:54:14.948Z,19.13
2017-10-20T17:56:42.795Z,19.07
2017-10-20T17:59:11.713Z,19.01
2017-10-20T18:01:39.361Z,18.90
2017-10-20T18:04:07.049Z,18.71
2017-10-20T18:06:34.720Z,18.67
2017-10-20T18:09:04.483Z,18.53
2017-10-20T18:11:32.242Z,18.51
2017-10-20T18:14:00.069Z,18.55
2017-10-20T18:16:27.709Z,18.57
2017-10-20T18:18:55.941Z,18.78
2017-10-20T18:21:23.634Z,18.84
2017-10-20T18:23:51.314Z,18.83
2017-10-20T18:26:19.121Z,18.88
2017-10-20T18:28:47.362Z,18.88
2017-10-20T18:31:15.059Z,18.76
2017-10-20T18:33:42.736Z,18.70
2017-10-20T18:36:10.591Z,18.55
2017-10-20T18:38:38.275Z,18.66
2017-10-20T18:41:06.430Z,18.40
2017-10-20T18:43:34.126Z,18.28
2017-10-20T18:46:01.774Z,18.31
2017-10-20T18:48:30.117Z,18.23
2017-10-20T18:50:58.036Z,18.13
2017-10-20T18:53:28.512Z,17.85
2017-10-20T18:55:57.562Z,17.97
2017-10-20T18:58:25.337Z,18.00
2017-10-20T19:00:54.815Z,18.15
2017-10-20T19:03:27.070Z,18.20
2017-10-20T19:05:56.893Z,18.28
2017-10-20T19:08:25.636Z,17.96
2017-10-20T19:10:55.641Z,17.84
2017-10-20T19:13:25.306Z,17.82
2017-10-20T19:15:54.229Z,17.89
2017-10-20T19:18:22.473Z,17.92
2017-10-20T19:20:50.099Z,17.92
2017-10-20T19:23:17.707Z,17.78
2017-10-20T19:25:45.378Z,17.66
2017-10-20T19:28:13.155Z,17.59
2017-10-20T19:30:40.812Z,17.49
2017-10-20T19:33:08.501Z,17.53
2017-10-20T19:35:37.820Z,17.56
2017-10-20T19:38:05.631Z,17.53
2017-10-20T19:40:33.236Z,17.58
2017-10-20T19:43:00.893Z,17.45
2017-10-20T19:45:28.584Z,17.44
2017-10-20T19:47:56.244Z,17.36
2017-10-20T19:50:24.003Z,17.39
2017-10-20T19:52:51.774Z,17.39
2017-10-20T19:55:20.225Z,17.22
2017-10-20T19:57:47.836Z,17.21
2017-10-20T20:00:15.617Z,17.12
2017-10-20T20:02:43.310Z,17.10
2017-10-20T20:05:10.977Z,17.15
2017-10-20T20:07:38.612Z,17.02
2017-10-20T20:10:06.253Z,16.93
2017-10-20T20:12:34.079Z,17.05
2017-10-20T20:15:01.695Z,16.99
2017-10-20T20:17:29.292Z,16.86
2017-10-20T20:19:56.872Z,16.87
2017-10-20T20:22:25.506Z,16.72
2017-10-20T20:24:53.196Z,16.75
2017-10-20T20:27:21.561Z,16.68
2017-10-20T20:29:49.313Z,16.69
2017-10-20T20:32:17.726Z,16.58
2017-10-20T20:34:45.391Z,16.51
2017-10-20T20:37:13.120Z,16.43
2017-10-20T20:39:40.771Z,16.24
2017-10-20T20:42:08.446Z,16.20
2017-10-20T20:44:36.147Z,16.07
2017-10-20T20:47:03.826Z,16.07
2017-10-20T20:49:31.437Z,16.10
2017-10-20T20:51:59.065Z,16.06
2017-10-20T20:54:26.710Z,16.18
2017-10-20T20:56:54.326Z,16.16
2017-10-20T20:59:22.033Z,15.98
2017-10-20T21:01:49.648Z,15.96
2017-10-20T21:04:17.236Z,16.01
2017-10-20T21:06:44.917Z,15.90
2017-10-20T21:09:12.654Z,15.85
2017-10-20T21:11:40.327Z,15.90
2017-10-20T21:14:07.994Z,15.82
2017-10-20T21:16:35.642Z,15.67
2017-10-20T21:19:03.282Z,15.59
2017-10-20T21:21:30.948Z,15.60
2017-10-20T21:23:58.590Z,15.62
2017-10-20T21:26:26.193Z,15.64
2017-10-20T21:28:53.861Z,15.60
2017-10-20T21:31:21.534Z,15.84
2017-10-20T21:33:49.178Z,15.73
2017-10-20T21:36:16.773Z,15.63
2017-10-20T21:38:45.064Z,15.63
2017-10-20T21:41:12.793Z,15.65
2017-10-20T21:43:40.446Z,15.53
2017-10-20T21:46:08.089Z,15.58
2017-10-20T21:48:35.715Z,15.61
2017-10-20T21:51:03.342Z,15.56
2017-10-20T21:53:31.097Z,15.61
2017-10-20T21:55:58.737Z,15.63
2017-10-20T21:58:26.405Z,15.54
2017-10-20T22:00:54.094Z,15.58
2017-10-20T22:03:21.704Z,15.51
2017-10-20T22:05:49.372Z,15.37
2017-10-20T22:08:17.061Z,15.29
2017-10-20T22:10:44.740Z,15.33
2017-10-20T22:13:13.595Z,15.19
2017-10-20T22:15:41.259Z,15.12
2017-10-20T22:18:09.194Z,15.07
2017-10-20T22:20:36.852Z,15.06
2017-10-20T22:23:04.765Z,14.97
2017-10-20T22:25:32.430Z,14.89
2017-10-20T22:28:00.094Z,14.83
2017-10-20T22:30:29.324Z,14.88
2017-10-20T22:32:58.227Z,14.87
2017-10-20T22:35:25.985Z,14.83
2017-10-20T22:37:53.689Z,14.82
2017-10-20T22:40:21.354Z,14.81
2017-10-20T22:42:49.072Z,14.89
2017-10-20T22:45:16.717Z,14.79
2017-10-20T22:47:44.345Z,14.65
2017-10-20T22:50:11.989Z,14.86
2017-10-20T22:52:39.737Z,14.69
2017-10-20T22:55:15.202Z,14.63
2017-10-20T22:57:42.897Z,14.56
2017-10-20T23:00:10.606Z,14.58
2017-10-20T23:02:38.323Z,14.61
2017-10-20T23:05:06.114Z,14.57
2017-10-20T23:07:34.548Z,14.66
2017-10-20T23:10:02.410Z,14.58
2017-10-20T23:12:30.248Z,14.56
2017-10-20T23:14:57.929Z,14.57
2017-10-20T23:17:25.504Z,14.54
2017-10-20T23:19:53.156Z,14.54
2017-10-20T23:22:20.761Z,14.38
2017-10-20T23:24:48.463Z,14.39
2017-10-20T23:27:16.255Z,14.43
2017-10-20T23:29:44.245Z,14.43
2017-10-20T23:32:11.955Z,14.39
2017-10-20T23:34:39.548Z,14.44
2017-10-20T23:37:07.793Z,14.41
2017-10-20T23:39:35.419Z,14.37
2017-10-20T23:42:03.762Z,14.27
2017-10-20T23:44:31.409Z,14.23
2017-10-20T23:46:59.067Z,14.31
2017-10-20T23:49:26.659Z,14.24
2017-10-20T23:51:54.287Z,14.21
2017-10-20T23:54:21.947Z,14.14
2017-10-20T23:56:49.586Z,14.13
2017-10-20T23:59:17.326Z,14.00
